createdAt,value
2019-04-25T00:00:07.244Z,937.87
2019-04-25T00:02:40.795Z,844.53
2019-04-25T00:05:11.833Z,879.83
2019-04-25T00:07:42.570Z,844.57
2019-04-25T00:10:13.804Z,946.87
2019-04-25T00:12:43.576Z,888.50
2019-04-25T00:15:13.916Z,937.07
2019-04-25T00:17:44.212Z,996.97
2019-04-25T00:20:13.960Z,998.43
2019-04-25T00:22:44.869Z,999.90
2019-04-25T00:25:17.872Z,999.90
2019-04-25T00:27:47.169Z,999.90
2019-04-25T00:30:16.346Z,999.90
2019-04-25T00:32:45.387Z,999.90
2019-04-25T00:35:14.594Z,999.90
2019-04-25T00:37:45.174Z,999.90
2019-04-25T00:40:14.380Z,999.90
2019-04-25T00:42:44.691Z,999.90
2019-04-25T00:45:14.154Z,999.90
2019-04-25T00:47:43.869Z,999.90
2019-04-25T00:50:13.974Z,999.90
2019-04-25T00:52:44.779Z,999.90
2019-04-25T00:55:25.928Z,999.90
2019-04-25T00:57:46.735Z,999.90
2019-04-25T01:00:17.602Z,999.90
2019-04-25T01:02:49.393Z,999.90
2019-04-25T01:05:18.533Z,999.90
2019-04-25T01:07:47.764Z,999.90
2019-04-25T01:10:18.117Z,999.90
2019-04-25T01:28:00.705Z,999.90
2019-04-25T01:30:30.228Z,999.90
2019-04-25T01:32:59.265Z,999.90
2019-04-25T01:35:29.926Z,999.90
2019-04-25T01:38:00.658Z,999.90
2019-04-25T01:40:31.350Z,999.90
2019-04-25T01:43:03.635Z,999.90
2019-04-25T01:45:34.737Z,999.90
2019-04-25T01:48:03.916Z,999.90
2019-04-25T01:50:33.205Z,999.90
2019-04-25T01:53:03.786Z,999.90
2019-04-25T01:55:33.564Z,999.90
2019-04-25T01:58:03.904Z,999.27
2019-04-25T02:00:34.656Z,999.90
2019-04-25T02:03:04.569Z,999.90
2019-04-25T02:05:33.892Z,999.90
2019-04-25T02:08:05.812Z,999.90
2019-04-25T02:10:34.448Z,999.90
2019-04-25T02:13:05.153Z,999.90
2019-04-25T02:15:34.215Z,999.90
2019-04-25T02:18:03.792Z,999.90
2019-04-25T02:20:33.969Z,999.90
2019-04-25T02:23:04.248Z,999.90
2019-04-25T02:25:34.264Z,961.97
2019-04-25T02:28:05.619Z,999.90
2019-04-25T02:30:36.566Z,999.90
2019-04-25T02:33:08.773Z,999.90
2019-04-25T02:35:36.289Z,976.63
2019-04-25T02:38:08.824Z,999.90
2019-04-25T02:40:36.007Z,987.40
2019-04-25T02:43:08.003Z,999.90
2019-04-25T02:45:35.628Z,999.90
2019-04-25T02:48:07.196Z,999.90
2019-04-25T02:50:37.913Z,999.90
2019-04-25T02:53:08.557Z,999.90
2019-04-25T02:55:37.883Z,999.90
2019-04-25T02:58:09.997Z,999.90
2019-04-25T03:00:51.657Z,986.87
2019-04-25T03:03:08.700Z,999.90
2019-04-25T03:05:38.051Z,988.77
2019-04-25T03:08:10.094Z,999.90
2019-04-25T03:10:37.758Z,999.90
2019-04-25T03:13:10.272Z,999.90
2019-04-25T03:15:37.466Z,999.90
2019-04-25T03:18:11.038Z,999.90
2019-04-25T03:20:38.806Z,999.90
2019-04-25T03:23:10.727Z,999.90
2019-04-25T03:25:40.383Z,999.90
2019-04-25T03:28:09.516Z,999.90
2019-04-25T03:30:38.547Z,999.90
2019-04-25T03:33:13.032Z,999.90
2019-04-25T03:35:38.254Z,999.90
2019-04-25T03:38:07.342Z,999.90
2019-04-25T03:40:36.384Z,997.77
2019-04-25T03:43:06.219Z,999.90
2019-04-25T03:45:36.154Z,999.90
2019-04-25T03:48:06.405Z,999.90
2019-04-25T03:50:35.487Z,999.90
2019-04-25T03:53:05.448Z,999.90
2019-04-25T03:55:35.947Z,999.90
2019-04-25T03:58:07.932Z,999.90
2019-04-25T04:00:36.462Z,999.90
2019-04-25T04:03:06.648Z,999.90
2019-04-25T04:05:36.141Z,999.90
2019-04-25T04:08:06.225Z,994.07
2019-04-25T04:10:35.418Z,999.90
2019-04-25T04:13:06.287Z,999.90
2019-04-25T04:15:35.243Z,999.90
2019-04-25T04:18:06.977Z,999.90
2019-04-25T04:20:37.789Z,999.90
2019-04-25T04:23:09.195Z,999.90
2019-04-25T04:25:38.237Z,999.90
2019-04-25T04:28:07.675Z,999.90
2019-04-25T04:30:36.713Z,999.90
2019-04-25T04:33:06.893Z,999.90
2019-04-25T04:35:35.925Z,999.90
2019-04-25T04:38:04.988Z,990.57
2019-04-25T04:40:34.373Z,995.07
2019-04-25T04:43:04.874Z,884.23
2019-04-25T04:45:34.523Z,852.33
2019-04-25T04:48:06.922Z,809.63
2019-04-25T04:50:35.941Z,777.57
2019-04-25T04:53:05.003Z,657.37
2019-04-25T04:55:34.497Z,639.93
2019-04-25T04:58:04.243Z,718.43
2019-04-25T05:00:33.886Z,725.60
2019-04-25T05:03:04.767Z,760.73
2019-04-25T05:05:35.412Z,741.17
2019-04-25T05:08:06.102Z,700.43
2019-04-25T05:10:35.126Z,709.13
2019-04-25T05:13:04.371Z,709.57
2019-04-25T05:15:33.469Z,753.50
2019-04-25T05:18:03.921Z,767.90
2019-04-25T05:20:34.292Z,791.33
2019-04-25T05:23:03.754Z,863.67
2019-04-25T05:25:34.423Z,869.27
2019-04-25T05:28:05.303Z,892.77
2019-04-25T05:30:36.113Z,932.10
2019-04-25T05:33:05.138Z,922.33
2019-04-25T05:35:34.197Z,894.35
2019-04-25T05:38:03.457Z,913.00
2019-04-25T05:40:34.226Z,927.52
2019-04-25T05:43:25.707Z,950.55
2019-04-25T05:45:54.925Z,908.00
2019-04-25T05:48:25.357Z,940.08
2019-04-25T05:50:54.575Z,908.50
2019-04-25T05:53:24.150Z,917.55
2019-04-25T05:55:54.159Z,920.42
2019-04-25T05:58:25.437Z,928.17
2019-04-25T06:00:54.483Z,887.48
2019-04-25T06:03:25.372Z,913.08
2019-04-25T06:05:55.374Z,912.70
2019-04-25T06:08:26.816Z,918.92
2019-04-25T06:10:58.039Z,913.87
2019-04-25T06:13:29.106Z,926.92
2019-04-25T06:15:59.852Z,934.05
2019-04-25T06:18:30.600Z,885.28
2019-04-25T06:20:59.600Z,884.70
2019-04-25T06:23:30.329Z,881.05
2019-04-25T06:25:59.364Z,918.82
2019-04-25T06:28:30.022Z,931.53
2019-04-25T06:30:59.053Z,922.10
2019-04-25T06:33:29.044Z,908.02
2019-04-25T06:35:58.042Z,965.23
2019-04-25T06:38:27.507Z,869.92
2019-04-25T06:40:57.405Z,882.00
2019-04-25T06:43:26.730Z,887.57
2019-04-25T06:45:57.417Z,911.50
2019-04-25T06:48:28.936Z,852.95
2019-04-25T06:50:58.051Z,852.15
2019-04-25T06:53:27.072Z,830.57
2019-04-25T06:55:56.119Z,815.98
2019-04-25T06:58:26.884Z,841.38
2019-04-25T07:01:00.630Z,779.98
2019-04-25T07:03:27.100Z,802.82
2019-04-25T07:05:56.177Z,815.77
2019-04-25T07:08:25.839Z,783.30
2019-04-25T07:10:55.735Z,889.42
2019-04-25T07:13:25.612Z,809.37
2019-04-25T07:15:54.937Z,791.08
2019-04-25T07:18:29.222Z,798.58
2019-04-25T07:20:54.702Z,819.48
2019-04-25T07:23:25.363Z,828.33
2019-04-25T07:25:56.137Z,802.13
2019-04-25T07:28:29.052Z,807.38
2019-04-25T07:30:59.268Z,759.03
2019-04-25T07:33:29.926Z,789.25
2019-04-25T07:35:59.009Z,769.97
2019-04-25T07:38:29.007Z,769.75
2019-04-25T07:40:58.081Z,778.75
2019-04-25T07:43:28.165Z,788.40
2019-04-25T07:45:57.413Z,762.12
2019-04-25T07:48:28.112Z,774.73
2019-04-25T07:50:57.112Z,800.02
2019-04-25T07:53:28.003Z,802.75
2019-04-25T07:55:56.784Z,781.20
2019-04-25T07:58:45.336Z,797.55
2019-04-25T08:00:59.554Z,770.15
2019-04-25T08:03:28.579Z,754.35
2019-04-25T08:05:57.595Z,799.12
2019-04-25T08:08:28.214Z,781.00
2019-04-25T08:10:58.849Z,776.85
2019-04-25T08:13:30.121Z,776.08
2019-04-25T08:16:00.793Z,762.38
2019-04-25T08:18:30.229Z,763.05
2019-04-25T08:20:59.612Z,811.82
2019-04-25T08:23:30.809Z,829.48
2019-04-25T08:26:00.387Z,801.35
2019-04-25T08:28:29.607Z,826.92
2019-04-25T08:30:59.417Z,836.20
2019-04-25T08:33:29.758Z,830.78
2019-04-25T08:36:06.596Z,821.35
2019-04-25T08:38:31.409Z,823.67
2019-04-25T08:41:00.490Z,857.50
2019-04-25T08:43:30.008Z,859.65
2019-04-25T08:45:59.868Z,838.95
2019-04-25T08:48:31.339Z,875.65
2019-04-25T08:51:03.569Z,854.00
2019-04-25T08:53:35.347Z,836.65
2019-04-25T08:56:07.410Z,800.47
2019-04-25T08:58:39.055Z,835.65
2019-04-25T09:01:09.768Z,848.12
2019-04-25T09:03:40.469Z,816.58
2019-04-25T09:06:09.548Z,808.05
2019-04-25T09:08:39.416Z,946.92
2019-04-25T09:11:08.488Z,847.93
2019-04-25T09:13:38.649Z,875.10
2019-04-25T09:16:08.117Z,906.80
2019-04-25T09:18:38.134Z,700.60
2019-04-25T09:21:07.370Z,861.63
2019-04-25T09:23:36.814Z,999.90
2019-04-25T09:26:06.877Z,999.90
2019-04-25T09:28:38.048Z,819.22
2019-04-25T09:31:06.602Z,807.25
2019-04-25T09:33:36.300Z,917.80
2019-04-25T09:36:06.922Z,815.45
2019-04-25T09:38:36.851Z,908.50
2019-04-25T09:41:06.092Z,857.85
2019-04-25T09:43:35.850Z,928.12
2019-04-25T09:46:06.651Z,941.42
2019-04-25T09:48:37.543Z,999.90
2019-04-25T09:51:07.582Z,943.65
2019-04-25T09:53:43.450Z,825.95
2019-04-25T09:56:10.213Z,827.48
2019-04-25T09:58:40.907Z,976.33
2019-04-25T10:01:20.936Z,871.55
2019-04-25T10:03:49.991Z,803.97
2019-04-25T10:06:19.579Z,775.17
2019-04-25T10:08:48.644Z,780.58
2019-04-25T10:11:17.737Z,794.97
2019-04-25T10:13:48.309Z,849.00
2019-04-25T10:16:17.335Z,793.23
2019-04-25T10:18:48.023Z,767.33
2019-04-25T10:21:17.459Z,785.75
2019-04-25T10:23:46.788Z,777.35
2019-04-25T10:26:16.296Z,999.90
2019-04-25T10:28:45.585Z,999.90
2019-04-25T10:31:14.886Z,824.35
2019-04-25T10:33:46.682Z,809.77
2019-04-25T10:36:14.603Z,793.80
2019-04-25T10:38:46.978Z,794.10
2019-04-25T10:41:14.378Z,785.78
2019-04-25T10:43:44.053Z,854.70
2019-04-25T10:46:14.123Z,802.33
2019-04-25T10:48:44.023Z,916.47
2019-04-25T10:51:13.881Z,879.18
2019-04-25T10:53:45.454Z,734.33
2019-04-25T10:56:14.213Z,999.90
2019-04-25T10:58:44.455Z,940.30
2019-04-25T11:01:15.330Z,891.70
2019-04-25T11:03:46.397Z,765.67
2019-04-25T11:06:17.319Z,943.20
2019-04-25T11:08:47.053Z,999.90
2019-04-25T11:11:16.213Z,745.67
2019-04-25T11:13:45.342Z,788.17
2019-04-25T11:16:14.758Z,823.23
2019-04-25T11:18:45.050Z,798.30
2019-04-25T11:21:14.650Z,768.92
2019-04-25T11:23:46.921Z,784.20
2019-04-25T11:26:14.316Z,766.30
2019-04-25T11:28:45.321Z,761.60
2019-04-25T11:31:16.226Z,782.17
2019-04-25T11:33:45.268Z,785.08
2019-04-25T11:36:14.311Z,784.40
2019-04-25T11:38:45.323Z,800.75
2019-04-25T11:41:16.110Z,820.85
2019-04-25T11:43:46.418Z,809.73
2019-04-25T11:46:16.562Z,803.27
2019-04-25T11:48:46.402Z,835.40
2019-04-25T11:51:15.557Z,827.35
2019-04-25T11:53:45.977Z,847.20
2019-04-25T11:56:15.254Z,807.60
2019-04-25T11:58:45.640Z,810.82
2019-04-25T12:01:15.512Z,820.15
2019-04-25T12:03:46.603Z,838.72
2019-04-25T12:06:16.730Z,796.75
2019-04-25T12:08:47.722Z,835.88
2019-04-25T12:11:16.784Z,805.72
2019-04-25T12:13:46.927Z,775.80
2019-04-25T12:16:16.520Z,749.42
2019-04-25T12:18:48.117Z,748.88
2019-04-25T12:21:16.171Z,756.52
2019-04-25T12:23:47.198Z,767.65
2019-04-25T12:26:16.022Z,789.58
2019-04-25T12:28:45.909Z,783.23
2019-04-25T12:31:14.965Z,758.70
2019-04-25T12:33:47.270Z,713.67
2019-04-25T12:36:14.701Z,734.05
2019-04-25T12:38:45.117Z,798.70
2019-04-25T12:41:14.426Z,753.08
2019-04-25T12:43:45.756Z,752.30
2019-04-25T12:46:16.521Z,752.55
2019-04-25T12:48:46.033Z,816.90
2019-04-25T12:51:16.075Z,727.20
2019-04-25T12:53:46.502Z,735.05
2019-04-25T12:56:15.560Z,759.10
2019-04-25T12:58:44.692Z,754.98
2019-04-25T13:01:14.796Z,742.72
2019-04-25T13:03:43.984Z,733.10
2019-04-25T13:06:13.655Z,741.73
2019-04-25T13:12:00.267Z,780.58
2019-04-25T13:14:29.339Z,784.92
2019-04-25T13:16:58.365Z,772.15
2019-04-25T13:19:27.465Z,770.25
2019-04-25T13:21:57.090Z,756.95
2019-04-25T13:24:26.993Z,764.42
2019-04-25T13:26:58.536Z,853.15
2019-04-25T13:29:29.290Z,814.20
2019-04-25T13:32:01.013Z,730.20
2019-04-25T13:34:36.397Z,730.63
2019-04-25T13:37:03.495Z,726.98
2019-04-25T13:39:34.190Z,740.08
2019-04-25T13:42:05.544Z,778.25
2019-04-25T13:44:35.020Z,783.98
2019-04-25T13:47:05.193Z,779.33
2019-04-25T13:49:34.226Z,764.92
2019-04-25T13:52:04.898Z,751.20
2019-04-25T13:54:35.021Z,775.72
2019-04-25T13:57:04.046Z,786.12
2019-04-25T13:59:33.089Z,776.33
2019-04-25T14:02:04.099Z,771.17
2019-04-25T14:04:35.448Z,775.58
2019-04-25T14:07:04.911Z,769.90
2019-04-25T14:09:34.766Z,773.92
2019-04-25T14:12:05.617Z,767.10
2019-04-25T14:14:36.092Z,810.65
2019-04-25T14:17:07.165Z,816.50
2019-04-25T14:19:37.873Z,747.65
2019-04-25T14:22:06.969Z,789.13
2019-04-25T14:24:36.077Z,824.20
2019-04-25T14:27:06.549Z,786.15
2019-04-25T14:29:35.677Z,808.30
2019-04-25T14:32:06.428Z,774.52
2019-04-25T14:34:35.466Z,734.67
2019-04-25T14:37:04.648Z,749.35
2019-04-25T14:39:33.757Z,757.15
2019-04-25T14:42:02.793Z,775.90
2019-04-25T14:44:31.921Z,765.55
2019-04-25T14:47:00.848Z,726.95
2019-04-25T14:49:30.522Z,746.72
2019-04-25T14:51:59.630Z,762.12
2019-04-25T14:54:30.709Z,773.97
2019-04-25T14:57:01.396Z,769.15
2019-04-25T14:59:31.475Z,803.52
2019-04-25T15:02:00.494Z,785.65
2019-04-25T15:04:30.099Z,781.10
2019-04-25T15:06:59.221Z,775.33
2019-04-25T15:09:28.842Z,761.75
2019-04-25T15:11:57.850Z,790.65
2019-04-25T15:14:26.982Z,776.48
2019-04-25T15:16:55.993Z,773.92
2019-04-25T15:19:25.433Z,758.80
2019-04-25T15:21:54.538Z,807.70
2019-04-25T15:24:23.902Z,783.98
2019-04-25T15:26:53.022Z,784.13
2019-04-25T15:29:22.058Z,804.33
2019-04-25T15:31:56.043Z,816.47
2019-04-25T15:34:23.362Z,782.12
2019-04-25T15:36:54.070Z,785.85
2019-04-25T15:39:24.938Z,759.08
2019-04-25T15:41:55.750Z,764.92
2019-04-25T15:44:26.658Z,795.08
2019-04-25T15:46:57.315Z,780.22
2019-04-25T15:49:26.322Z,806.45
2019-04-25T15:51:55.378Z,843.55
2019-04-25T15:54:25.304Z,796.90
2019-04-25T15:56:56.196Z,847.85
2019-04-25T15:59:25.221Z,848.87
2019-04-25T16:01:54.289Z,834.95
2019-04-25T16:04:23.382Z,806.60
2019-04-25T16:06:53.392Z,896.78
2019-04-25T16:09:22.577Z,860.02
2019-04-25T16:11:51.640Z,831.35
2019-04-25T16:14:20.788Z,887.37
2019-04-25T16:16:49.786Z,894.52
2019-04-25T16:19:18.801Z,923.90
2019-04-25T16:21:47.922Z,895.27
2019-04-25T16:24:16.938Z,904.27
2019-04-25T16:26:46.182Z,880.38
2019-04-25T16:29:15.292Z,891.23
2019-04-25T16:31:44.455Z,856.83
2019-04-25T16:34:13.497Z,900.60
2019-04-25T16:36:42.616Z,887.05
2019-04-25T16:39:13.370Z,820.15
2019-04-25T16:41:44.125Z,891.85
2019-04-25T16:44:14.781Z,869.03
2019-04-25T16:46:43.864Z,844.85
2019-04-25T16:49:12.966Z,853.30
2019-04-25T16:51:42.388Z,853.82
2019-04-25T16:54:11.392Z,850.88
2019-04-25T16:56:40.420Z,821.48
2019-04-25T16:59:10.414Z,819.60
2019-04-25T17:01:39.761Z,815.83
2019-04-25T17:04:10.001Z,828.12
2019-04-25T17:06:39.213Z,830.12
2019-04-25T17:09:08.366Z,806.40
2019-04-25T17:12:03.845Z,806.95
2019-04-25T17:14:35.343Z,800.45
2019-04-25T17:17:06.256Z,847.05
2019-04-25T17:19:36.935Z,874.83
2019-04-25T17:22:06.094Z,836.05
2019-04-25T17:24:35.154Z,855.80
2019-04-25T17:27:05.633Z,845.05
2019-04-25T17:29:34.742Z,871.90
2019-04-25T17:32:05.586Z,903.20
2019-04-25T17:34:36.638Z,914.27
2019-04-25T17:37:07.434Z,929.95
2019-04-25T17:39:38.173Z,926.82
2019-04-25T17:42:07.295Z,927.02
2019-04-25T17:44:36.392Z,936.50
2019-04-25T17:47:06.468Z,900.35
2019-04-25T17:49:36.721Z,928.67
2019-04-25T17:52:07.908Z,938.18
2019-04-25T17:54:36.941Z,938.33
2019-04-25T17:57:07.265Z,943.05
2019-04-25T17:59:36.901Z,897.48
2019-04-25T18:02:06.214Z,913.80
2019-04-25T18:04:35.422Z,932.60
2019-04-25T18:07:04.781Z,924.80
2019-04-25T18:09:34.452Z,933.15
2019-04-25T18:12:04.546Z,918.80
2019-04-25T18:14:35.216Z,961.70
2019-04-25T18:17:04.238Z,937.67
2019-04-25T18:19:35.154Z,957.15
2019-04-25T18:22:06.806Z,931.67
2019-04-25T18:24:37.747Z,927.75
2019-04-25T18:27:08.353Z,912.83
2019-04-25T18:29:37.570Z,924.32
2019-04-25T18:32:06.621Z,939.95
2019-04-25T18:34:37.511Z,938.48
2019-04-25T18:37:08.240Z,965.60
2019-04-25T18:39:39.846Z,943.43
2019-04-25T18:42:11.598Z,890.05
2019-04-25T18:44:40.640Z,916.25
2019-04-25T18:47:09.662Z,916.38
2019-04-25T18:49:39.309Z,911.80
2019-04-25T18:52:09.970Z,916.55
2019-04-25T18:54:41.148Z,915.35
2019-04-25T18:57:11.819Z,897.02
2019-04-25T18:59:42.573Z,892.33
2019-04-25T19:02:11.642Z,859.45
2019-04-25T19:04:42.342Z,891.20
2019-04-25T19:07:22.106Z,852.95
2019-04-25T19:09:42.873Z,882.73
2019-04-25T19:12:12.060Z,843.07
2019-04-25T19:14:41.338Z,853.88
2019-04-25T19:17:10.709Z,914.72
2019-04-25T19:19:39.787Z,920.63
2019-04-25T19:22:08.870Z,892.30
2019-04-25T19:24:37.910Z,918.35
2019-04-25T19:27:06.962Z,907.83
2019-04-25T19:29:35.997Z,897.78
2019-04-25T19:32:05.138Z,908.30
2019-04-25T19:34:34.435Z,907.73
2019-04-25T19:37:04.544Z,912.45
2019-04-25T19:39:35.223Z,943.82
2019-04-25T19:42:06.117Z,933.07
2019-04-25T19:44:35.160Z,915.38
2019-04-25T19:47:05.181Z,905.70
2019-04-25T19:49:34.209Z,896.45
2019-04-25T19:52:03.321Z,877.95
2019-04-25T19:54:32.406Z,904.72
2019-04-25T19:57:01.450Z,878.70
2019-04-25T19:59:30.538Z,897.40
2019-04-25T20:02:01.216Z,912.30
2019-04-25T20:04:31.949Z,931.63
2019-04-25T20:07:02.651Z,868.53
2019-04-25T20:09:33.297Z,892.20
2019-04-25T20:12:02.795Z,876.30
2019-04-25T20:14:31.815Z,939.27
2019-04-25T20:17:00.864Z,746.35
2019-04-25T20:19:29.873Z,802.00
2019-04-25T20:21:58.917Z,802.15
2019-04-25T20:24:27.972Z,845.43
2019-04-25T20:26:56.989Z,827.30
2019-04-25T20:29:26.180Z,815.27
2019-04-25T20:31:55.224Z,999.90
2019-04-25T20:34:24.289Z,999.90
2019-04-25T20:36:53.695Z,908.30
2019-04-25T20:39:22.742Z,977.48
2019-04-25T20:41:51.939Z,893.80
2019-04-25T20:44:21.010Z,999.90
2019-04-25T20:46:50.567Z,823.65
2019-04-25T20:49:19.678Z,843.17
2019-04-25T20:51:48.789Z,867.23
2019-04-25T20:54:17.802Z,917.03
2019-04-25T20:56:49.774Z,878.17
2019-04-25T20:59:19.775Z,999.90
2019-04-25T21:01:49.663Z,816.87
2019-04-25T21:04:20.377Z,846.17
2019-04-25T21:06:49.412Z,949.27
2019-04-25T21:09:20.846Z,999.90
2019-04-25T21:11:49.946Z,999.90
2019-04-25T21:14:20.598Z,975.33
2019-04-25T21:16:51.842Z,944.97
2019-04-25T21:19:22.609Z,956.60
2019-04-25T21:21:51.817Z,802.80
2019-04-25T21:24:20.793Z,999.90
2019-04-25T21:26:50.219Z,863.27
2019-04-25T21:29:20.351Z,752.67
2019-04-25T21:31:51.181Z,793.40
2019-04-25T21:34:26.599Z,856.03
2019-04-25T21:36:51.273Z,809.80
2019-04-25T21:39:22.818Z,767.60
2019-04-25T21:41:53.658Z,967.27
2019-04-25T21:44:23.007Z,926.43
2019-04-25T21:46:52.198Z,760.17
2019-04-25T21:49:22.249Z,965.67
2019-04-25T21:51:51.249Z,916.97
2019-04-25T21:54:20.282Z,999.90
2019-04-25T21:56:49.497Z,945.27
2019-04-25T21:59:18.759Z,699.70
2019-04-25T22:01:47.758Z,745.17
2019-04-25T22:04:16.886Z,876.00
2019-04-25T22:06:46.168Z,743.33
2019-04-25T22:09:17.905Z,705.67
2019-04-25T22:11:47.222Z,706.13
2019-04-25T22:14:16.537Z,708.00
2019-04-25T22:16:45.905Z,715.47
2019-04-25T22:19:15.626Z,668.80
2019-04-25T22:21:44.838Z,709.00
2019-04-25T22:24:14.740Z,699.03
2019-04-25T22:26:45.161Z,684.97
2019-04-25T22:29:14.316Z,687.93
2019-04-25T22:31:43.362Z,664.33
2019-04-25T22:34:14.091Z,694.57
2019-04-25T22:36:43.298Z,669.23
2019-04-25T22:39:13.068Z,655.33
2019-04-25T22:41:46.262Z,697.30
2019-04-25T22:44:15.959Z,751.17
2019-04-25T22:46:45.251Z,650.30
2019-04-25T22:49:14.295Z,686.10
2019-04-25T22:51:43.377Z,664.53
2019-04-25T22:54:12.681Z,705.10
2019-04-25T22:56:41.685Z,696.67
2019-04-25T22:59:11.153Z,671.40
2019-04-25T23:01:41.982Z,668.50
2019-04-25T23:04:12.686Z,681.73
2019-04-25T23:06:41.898Z,675.07
2019-04-25T23:09:10.950Z,700.37
2019-04-25T23:11:41.578Z,677.03
2019-04-25T23:14:10.926Z,693.80
2019-04-25T23:16:39.926Z,650.97
2019-04-25T23:19:09.277Z,658.50
2019-04-25T23:21:38.706Z,669.20
2019-04-25T23:24:07.839Z,671.90
2019-04-25T23:26:37.093Z,707.77
2019-04-25T23:29:08.121Z,677.30
2019-04-25T23:31:38.773Z,649.07
2019-04-25T23:34:08.753Z,702.13
2019-04-25T23:36:37.806Z,629.90
2019-04-25T23:39:09.406Z,687.43
2019-04-25T23:41:38.749Z,683.40
2019-04-25T23:44:07.981Z,739.20
2019-04-25T23:46:37.289Z,715.07
2019-04-25T23:49:07.393Z,676.27
2019-04-25T23:51:36.814Z,727.50
2019-04-25T23:54:07.467Z,713.70
2019-04-25T23:56:36.551Z,706.43
2019-04-25T23:59:05.775Z,709.10
